sim
Sign-in with your pilot id or email,
or register
Callsign
Passwort

Schedule Details

Flight Number: UAE508
Departure: Dubai International Airport (OMDB) at 11:50
Arrival: Mumbai Chhatrapati Shivaji International Airport (VABB) at 15:05
Route: Emirates Passenger Schedule. Enter filed route here before submitting Pirep.

Weather Information
Getting current METAR information for OMDB 191900Z 07009KT 050V110 CAVOK 36/22 Q1003 NOSIG
Getting current METAR information for VABB 191900Z 27007KT 3500 HZ FEW020 SCT025 28/25 Q1010 BECMG 3000 HZ

Schedule Frequency

Route Map